createdAt,value
2022-12-31T00:01:41.462Z,20.92
2022-12-31T00:04:11.383Z,19.23
2022-12-31T00:06:40.401Z,19.95
2022-12-31T00:09:09.421Z,19.90
2022-12-31T00:11:38.514Z,18.85
2022-12-31T00:14:07.657Z,20.73
2022-12-31T00:16:38.164Z,20.08
2022-12-31T00:19:17.271Z,19.38
2022-12-31T00:21:46.785Z,17.85
2022-12-31T00:24:16.239Z,19.75
2022-12-31T00:26:47.401Z,18.13
2022-12-31T00:29:16.921Z,19.55
2022-12-31T00:31:45.693Z,17.63
2022-12-31T00:34:14.420Z,21.15
2022-12-31T00:36:43.619Z,19.70
2022-12-31T00:39:14.671Z,19.40
2022-12-31T00:41:44.505Z,19.63
2022-12-31T00:44:13.453Z,17.85
2022-12-31T00:49:10.060Z,20.27
2022-12-31T00:51:41.299Z,21.42
2022-12-31T00:54:10.578Z,20.00
2022-12-31T00:56:39.628Z,21.25
2022-12-31T00:59:08.683Z,22.13
2022-12-31T01:01:39.399Z,21.10
2022-12-31T01:04:11.181Z,21.98
2022-12-31T01:06:40.161Z,21.02
2022-12-31T01:09:09.505Z,22.90
2022-12-31T01:11:38.427Z,56.63
2022-12-31T01:14:09.567Z,27.98
2022-12-31T01:16:39.908Z,24.60
2022-12-31T01:19:10.261Z,22.27
2022-12-31T01:21:49.391Z,21.60
2022-12-31T01:24:18.490Z,24.67
2022-12-31T01:26:48.525Z,24.48
2022-12-31T01:29:17.425Z,23.90
2022-12-31T01:31:48.654Z,22.63
2022-12-31T01:34:28.032Z,23.80
2022-12-31T01:36:57.439Z,27.73
2022-12-31T01:39:26.110Z,28.08
2022-12-31T01:41:54.860Z,41.72
2022-12-31T01:44:32.476Z,36.33
2022-12-31T01:47:03.235Z,31.55
2022-12-31T01:49:38.364Z,41.58
2022-12-31T01:52:13.668Z,47.00
2022-12-31T01:54:48.655Z,44.93
2022-12-31T01:59:50.880Z,35.30
2022-12-31T02:02:25.099Z,30.42
2022-12-31T02:05:01.129Z,26.50
2022-12-31T02:07:31.591Z,24.67
2022-12-31T02:10:06.930Z,24.27
2022-12-31T02:12:36.562Z,26.05
2022-12-31T02:15:38.508Z,27.88
2022-12-31T02:18:31.776Z,34.40
2022-12-31T02:21:06.899Z,52.22
2022-12-31T02:23:36.378Z,53.65
2022-12-31T02:26:24.263Z,27.14
2022-12-31T02:38:34.243Z,29.90
2022-12-31T02:41:03.055Z,24.30
2022-12-31T02:43:31.604Z,28.88
2022-12-31T02:46:22.563Z,32.69
2022-12-31T02:52:07.563Z,47.30
2022-12-31T02:54:45.883Z,70.78
2022-12-31T02:57:34.547Z,44.00
2022-12-31T03:00:24.289Z,36.85
2022-12-31T03:03:02.613Z,30.50
2022-12-31T03:05:35.106Z,33.95
2022-12-31T03:08:04.514Z,43.13
2022-12-31T03:10:38.520Z,33.80
2022-12-31T03:13:11.911Z,53.42
2022-12-31T03:15:40.751Z,59.28
2022-12-31T03:18:13.812Z,42.00
2022-12-31T03:21:04.044Z,48.70
2022-12-31T03:23:43.543Z,56.25
2022-12-31T03:26:12.934Z,46.80
2022-12-31T03:28:43.718Z,40.28
2022-12-31T03:31:13.832Z,31.40
2022-12-31T03:33:53.994Z,31.13
2022-12-31T03:36:32.896Z,28.73
2022-12-31T03:39:01.787Z,30.80
2022-12-31T03:41:30.654Z,36.28
2022-12-31T03:44:09.096Z,39.40
2022-12-31T03:46:38.786Z,48.20
2022-12-31T03:49:08.290Z,46.42
2022-12-31T03:51:37.077Z,67.45
2022-12-31T03:54:05.882Z,67.03
2022-12-31T03:56:34.887Z,68.57
2022-12-31T03:59:03.976Z,46.97
2022-12-31T04:01:44.737Z,49.80
2022-12-31T04:04:24.239Z,35.42
2022-12-31T04:07:03.293Z,53.60
2022-12-31T04:09:37.926Z,30.88
2022-12-31T04:12:17.391Z,27.40
2022-12-31T04:14:46.615Z,30.08
2022-12-31T04:17:25.884Z,37.20
2022-12-31T04:20:05.534Z,43.90
2022-12-31T04:22:40.461Z,34.60
2022-12-31T04:25:14.214Z,45.97
2022-12-31T04:27:46.102Z,36.70
2022-12-31T04:30:15.766Z,31.27
2022-12-31T04:32:45.024Z,34.72
2022-12-31T04:35:14.240Z,36.08
2022-12-31T04:37:44.924Z,36.30
2022-12-31T04:40:13.982Z,39.97
2022-12-31T04:42:43.504Z,51.15
2022-12-31T04:45:12.521Z,49.65
2022-12-31T04:47:42.818Z,58.63
2022-12-31T04:50:11.786Z,60.55
2022-12-31T04:52:43.095Z,43.38
2022-12-31T04:55:12.418Z,42.85
2022-12-31T04:57:41.850Z,32.58
2022-12-31T05:00:11.564Z,34.05
2022-12-31T05:02:41.685Z,33.55
2022-12-31T05:05:10.790Z,29.98
2022-12-31T05:07:41.139Z,29.70
2022-12-31T05:10:09.977Z,36.10
2022-12-31T05:12:42.458Z,42.60
2022-12-31T05:15:11.302Z,35.60
2022-12-31T05:17:41.567Z,40.47
2022-12-31T05:20:20.626Z,42.75
2022-12-31T05:22:50.395Z,45.85
2022-12-31T05:25:19.093Z,42.70
2022-12-31T05:27:47.810Z,46.83
2022-12-31T05:30:19.098Z,59.17
2022-12-31T05:32:48.430Z,40.58
2022-12-31T05:35:17.772Z,35.42
2022-12-31T05:37:48.062Z,28.94
2022-12-31T05:40:16.870Z,29.45
2022-12-31T05:42:46.068Z,28.15
2022-12-31T05:45:15.880Z,26.52
2022-12-31T05:47:44.676Z,29.15
2022-12-31T05:50:15.933Z,35.30
2022-12-31T05:52:51.308Z,37.33
2022-12-31T05:55:20.232Z,52.85
2022-12-31T05:57:49.246Z,38.58
2022-12-31T06:00:17.967Z,33.83
2022-12-31T06:02:46.863Z,37.15
2022-12-31T06:05:19.650Z,26.13
2022-12-31T06:08:04.472Z,29.64
2022-12-31T06:10:34.216Z,30.58
2022-12-31T06:13:03.214Z,29.10
2022-12-31T06:15:39.314Z,31.05
2022-12-31T06:18:09.204Z,25.98
2022-12-31T06:20:43.570Z,31.90
2022-12-31T06:23:22.608Z,43.25
2022-12-31T06:25:56.603Z,53.42
2022-12-31T06:28:25.391Z,56.45
2022-12-31T06:30:59.600Z,40.50
2022-12-31T06:33:38.922Z,39.28
2022-12-31T06:36:12.004Z,24.30
2022-12-31T06:38:41.624Z,28.45
2022-12-31T06:41:22.173Z,28.65
2022-12-31T06:43:53.532Z,27.73
2022-12-31T06:46:23.357Z,41.85
2022-12-31T06:48:52.378Z,31.60
2022-12-31T06:51:22.118Z,42.58
2022-12-31T06:53:53.357Z,30.23
2022-12-31T06:56:32.950Z,28.88
2022-12-31T06:59:02.988Z,28.50
2022-12-31T07:01:35.326Z,50.22
2022-12-31T07:04:14.899Z,34.75
2022-12-31T07:06:44.515Z,32.50
2022-12-31T07:09:25.298Z,39.80
2022-12-31T07:12:02.813Z,43.42
2022-12-31T07:14:35.816Z,45.67
2022-12-31T07:17:15.259Z,38.38
2022-12-31T07:19:51.052Z,30.60
2022-12-31T07:22:23.124Z,29.58
2022-12-31T07:24:52.661Z,27.55
2022-12-31T07:27:39.880Z,30.05
2022-12-31T07:30:15.119Z,26.90
2022-12-31T07:32:53.838Z,42.90
2022-12-31T07:35:45.704Z,35.92
2022-12-31T07:38:33.141Z,44.47
2022-12-31T07:41:11.269Z,31.27
2022-12-31T07:43:43.821Z,25.55
2022-12-31T07:46:16.105Z,27.92
2022-12-31T07:48:45.339Z,31.63
2022-12-31T07:51:14.315Z,29.33
2022-12-31T07:53:43.256Z,31.40
2022-12-31T07:56:11.988Z,34.83
2022-12-31T07:59:00.766Z,36.30
2022-12-31T08:01:35.787Z,31.48
2022-12-31T08:04:25.731Z,20.58
2022-12-31T08:07:12.216Z,23.98
2022-12-31T08:10:04.331Z,23.05
2022-12-31T08:12:35.154Z,24.40
2022-12-31T08:15:17.326Z,30.13
2022-12-31T08:17:46.921Z,29.20
2022-12-31T08:20:17.529Z,28.02
2022-12-31T08:22:55.693Z,25.38
2022-12-31T08:25:44.170Z,29.98
2022-12-31T08:28:35.380Z,28.67
2022-12-31T08:31:22.569Z,21.30
2022-12-31T08:34:06.408Z,20.17
2022-12-31T08:36:44.558Z,17.08
2022-12-31T08:39:22.376Z,22.23
2022-12-31T08:41:54.575Z,19.80
2022-12-31T08:44:28.034Z,22.17
2022-12-31T08:47:03.184Z,27.52
2022-12-31T08:49:33.903Z,24.35
2022-12-31T08:52:03.890Z,33.70
2022-12-31T08:54:33.386Z,24.92
2022-12-31T08:57:14.123Z,31.10
2022-12-31T09:00:03.282Z,33.78
2022-12-31T09:02:44.606Z,26.65
2022-12-31T09:05:24.883Z,24.33
2022-12-31T09:08:09.981Z,27.45
2022-12-31T09:10:51.441Z,32.75
2022-12-31T09:13:30.189Z,29.63
2022-12-31T09:16:18.734Z,30.08
2022-12-31T09:18:52.482Z,22.50
2022-12-31T09:21:21.737Z,21.77
2022-12-31T09:23:50.991Z,24.23
2022-12-31T09:26:23.613Z,29.98
2022-12-31T09:29:02.503Z,35.13
2022-12-31T09:31:40.296Z,53.85
2022-12-31T09:34:09.789Z,31.02
2022-12-31T09:36:47.062Z,35.42
2022-12-31T09:39:38.762Z,36.55
2022-12-31T09:42:27.053Z,29.20
2022-12-31T09:44:59.401Z,31.77
2022-12-31T09:47:32.063Z,21.85
2022-12-31T09:50:27.216Z,27.02
2022-12-31T09:53:02.856Z,54.75
2022-12-31T09:55:37.517Z,43.53
2022-12-31T09:58:12.029Z,33.25
2022-12-31T10:00:58.571Z,60.20
2022-12-31T10:03:37.316Z,22.08
2022-12-31T10:06:26.297Z,35.78
2022-12-31T10:09:07.158Z,26.20
2022-12-31T10:11:54.930Z,54.33
2022-12-31T10:14:47.233Z,32.42
2022-12-31T10:17:31.378Z,28.00
2022-12-31T10:20:11.559Z,20.35
2022-12-31T10:22:46.823Z,30.88
2022-12-31T10:25:39.139Z,26.95
2022-12-31T10:28:31.333Z,31.48
2022-12-31T10:31:18.979Z,34.58
2022-12-31T10:33:58.147Z,37.42
2022-12-31T10:36:48.321Z,34.60
2022-12-31T10:42:45.884Z,54.40
2022-12-31T10:45:24.342Z,28.70
2022-12-31T10:48:04.964Z,31.00
2022-12-31T10:51:02.631Z,32.55
2022-12-31T10:53:59.659Z,29.40
2022-12-31T10:56:47.299Z,21.90
2022-12-31T10:59:47.919Z,24.77
2022-12-31T11:02:29.410Z,19.90
2022-12-31T11:05:23.831Z,28.42
2022-12-31T11:08:05.510Z,26.17
2022-12-31T11:10:34.464Z,23.52
2022-12-31T11:13:12.340Z,21.98
2022-12-31T11:15:50.320Z,21.10
2022-12-31T11:18:30.824Z,24.88
2022-12-31T11:24:33.985Z,28.10
2022-12-31T11:27:16.848Z,32.25
2022-12-31T11:30:10.606Z,38.17
2022-12-31T11:33:02.378Z,29.30
2022-12-31T11:35:34.431Z,38.85
2022-12-31T11:38:25.674Z,22.83
2022-12-31T11:41:19.935Z,31.67
2022-12-31T11:44:13.227Z,28.08
2022-12-31T11:46:48.510Z,27.17
2022-12-31T11:49:46.248Z,31.17
2022-12-31T11:52:30.594Z,28.11
2022-12-31T11:54:59.796Z,36.45
2022-12-31T11:57:36.531Z,57.13
2022-12-31T12:00:19.693Z,33.83
2022-12-31T12:02:54.088Z,32.42
2022-12-31T12:05:24.078Z,22.25
2022-12-31T12:07:53.466Z,36.33
2022-12-31T12:10:29.099Z,30.55
2022-12-31T12:13:14.450Z,31.27
2022-12-31T12:16:06.502Z,26.70
2022-12-31T12:18:46.763Z,28.05
2022-12-31T12:21:21.599Z,25.75
2022-12-31T12:23:56.343Z,33.15
2022-12-31T12:26:37.459Z,20.83
2022-12-31T12:29:25.022Z,22.65
2022-12-31T12:32:01.723Z,31.58
2022-12-31T12:34:32.168Z,26.88
2022-12-31T12:37:27.070Z,30.73
2022-12-31T12:40:11.203Z,24.70
2022-12-31T12:42:51.909Z,38.07
2022-12-31T12:45:25.635Z,32.92
2022-12-31T12:47:59.980Z,30.08
2022-12-31T12:51:02.660Z,25.15
2022-12-31T12:53:43.038Z,23.55
2022-12-31T12:56:17.519Z,23.98
2022-12-31T12:59:10.535Z,38.45
2022-12-31T13:01:39.969Z,41.72
2022-12-31T13:04:35.438Z,29.98
2022-12-31T13:07:24.576Z,27.33
2022-12-31T13:10:12.500Z,22.25
2022-12-31T13:15:46.703Z,40.45
2022-12-31T13:18:29.212Z,21.02
2022-12-31T13:21:06.016Z,24.30
2022-12-31T13:23:59.995Z,33.47
2022-12-31T13:26:34.207Z,45.13
2022-12-31T13:29:04.254Z,29.40
2022-12-31T13:31:36.100Z,43.63
2022-12-31T13:34:07.871Z,26.67
2022-12-31T13:36:48.216Z,24.00
2022-12-31T13:39:19.877Z,36.90
2022-12-31T13:42:13.697Z,21.38
2022-12-31T13:44:56.843Z,20.23
2022-12-31T13:47:47.930Z,29.42
2022-12-31T13:50:36.966Z,29.33
2022-12-31T13:53:27.575Z,24.02
2022-12-31T13:56:17.829Z,25.75
2022-12-31T13:58:50.578Z,25.95
2022-12-31T14:01:41.693Z,29.85
2022-12-31T14:04:10.877Z,25.10
2022-12-31T14:06:55.967Z,29.48
2022-12-31T14:09:33.950Z,44.70
2022-12-31T14:12:24.226Z,41.53
2022-12-31T14:15:36.747Z,36.75
2022-12-31T14:18:16.513Z,24.08
2022-12-31T14:20:53.555Z,54.42
2022-12-31T14:23:51.055Z,44.58
2022-12-31T14:26:27.917Z,29.60
2022-12-31T14:29:06.785Z,35.17
2022-12-31T14:31:56.561Z,59.30
2022-12-31T14:34:39.383Z,53.50
2022-12-31T14:37:08.488Z,24.77
2022-12-31T14:39:42.301Z,24.55
2022-12-31T14:42:17.829Z,35.45
2022-12-31T14:44:58.459Z,25.98
2022-12-31T14:47:36.143Z,32.85
2022-12-31T14:50:07.487Z,29.25
2022-12-31T14:52:48.034Z,53.08
2022-12-31T14:55:31.630Z,35.58
2022-12-31T14:58:27.715Z,42.38
2022-12-31T15:00:57.071Z,53.58
2022-12-31T15:03:47.451Z,43.17
2022-12-31T15:06:16.427Z,42.80
2022-12-31T15:09:08.334Z,26.08
2022-12-31T15:11:40.889Z,44.33
2022-12-31T15:14:22.934Z,36.20
2022-12-31T15:17:00.056Z,41.53
2022-12-31T15:19:41.437Z,40.97
2022-12-31T15:22:34.309Z,26.38
2022-12-31T15:25:04.357Z,26.67
2022-12-31T15:27:37.514Z,18.67
2022-12-31T15:30:07.459Z,16.77
2022-12-31T15:32:36.594Z,25.48
2022-12-31T15:35:25.403Z,26.33
2022-12-31T15:38:12.601Z,20.15
2022-12-31T15:40:48.154Z,28.48
2022-12-31T15:43:38.353Z,20.17
2022-12-31T15:46:20.220Z,24.00
2022-12-31T15:48:55.443Z,25.25
2022-12-31T15:51:48.274Z,26.83
2022-12-31T15:54:28.194Z,37.42
2022-12-31T15:56:57.982Z,31.17
2022-12-31T15:59:27.611Z,18.38
2022-12-31T16:01:59.324Z,18.73
2022-12-31T16:04:29.570Z,23.08
2022-12-31T16:07:10.131Z,24.33
2022-12-31T16:09:40.152Z,21.42
2022-12-31T16:12:32.517Z,18.13
2022-12-31T16:15:03.637Z,21.02
2022-12-31T16:17:34.912Z,23.27
2022-12-31T16:20:25.844Z,31.50
2022-12-31T16:22:59.496Z,20.88
2022-12-31T16:25:31.097Z,28.80
2022-12-31T16:28:02.323Z,28.45
2022-12-31T16:30:36.816Z,32.28
2022-12-31T16:33:07.247Z,20.23
2022-12-31T16:35:54.769Z,34.00
2022-12-31T16:38:35.986Z,22.02
2022-12-31T16:41:16.031Z,21.45
2022-12-31T16:43:51.061Z,27.42
2022-12-31T16:46:22.321Z,19.25
2022-12-31T16:49:05.269Z,36.90
2022-12-31T16:51:42.532Z,20.85
2022-12-31T16:54:29.867Z,28.55
2022-12-31T16:56:59.448Z,30.40
2022-12-31T16:59:41.580Z,27.60
2022-12-31T17:02:17.014Z,25.77
2022-12-31T17:04:55.154Z,20.05
2022-12-31T17:07:36.029Z,37.45
2022-12-31T17:10:15.434Z,22.88
2022-12-31T17:15:55.065Z,24.13
2022-12-31T17:18:25.449Z,30.42
2022-12-31T17:21:09.239Z,19.83
2022-12-31T17:23:52.023Z,16.33
2022-12-31T17:26:31.903Z,25.13
2022-12-31T17:29:03.017Z,19.67
2022-12-31T17:31:43.644Z,60.75
2022-12-31T17:34:12.857Z,16.25
2022-12-31T17:36:52.197Z,23.55
2022-12-31T17:39:22.878Z,20.15
2022-12-31T17:41:58.565Z,21.85
2022-12-31T17:44:29.253Z,22.52
2022-12-31T17:46:58.257Z,15.82
2022-12-31T17:49:30.216Z,16.95
2022-12-31T17:51:59.048Z,28.92
2022-12-31T17:54:28.803Z,16.95
2022-12-31T17:57:08.580Z,30.15
2022-12-31T17:59:42.100Z,22.65
2022-12-31T18:02:12.856Z,28.08
2022-12-31T18:04:41.608Z,28.35
2022-12-31T18:07:10.479Z,22.63
2022-12-31T18:09:39.757Z,21.77
2022-12-31T18:12:08.819Z,23.88
2022-12-31T18:14:37.614Z,15.20
2022-12-31T18:17:06.756Z,27.42
2022-12-31T18:20:03.728Z,25.92
2022-12-31T18:22:27.148Z,21.08
2022-12-31T18:25:01.871Z,22.08
2022-12-31T18:27:31.335Z,25.90
2022-12-31T18:30:04.944Z,36.75
2022-12-31T18:32:34.915Z,29.95
2022-12-31T18:35:40.742Z,34.20
2022-12-31T18:38:17.793Z,24.10
2022-12-31T18:40:57.766Z,23.83
2022-12-31T18:43:29.079Z,32.85
2022-12-31T18:46:03.449Z,30.30
2022-12-31T18:48:32.489Z,22.63
2022-12-31T18:51:01.606Z,27.23
2022-12-31T18:53:34.797Z,32.53
2022-12-31T18:56:03.986Z,27.02
2022-12-31T18:58:33.349Z,20.35
2022-12-31T19:01:02.574Z,26.20
2022-12-31T19:03:31.425Z,26.13
2022-12-31T19:06:09.064Z,22.38
2022-12-31T19:08:38.012Z,31.10
2022-12-31T19:11:06.843Z,23.45
2022-12-31T19:13:45.679Z,19.20
2022-12-31T19:16:15.289Z,26.50
2022-12-31T19:18:44.457Z,26.05
2022-12-31T19:21:24.150Z,20.40
2022-12-31T19:23:56.247Z,21.92
2022-12-31T19:26:34.785Z,20.79
2022-12-31T19:29:16.468Z,21.67
2022-12-31T19:31:45.588Z,23.35
2022-12-31T19:34:19.885Z,23.52
2022-12-31T19:36:57.897Z,23.77
2022-12-31T19:39:33.591Z,32.80
2022-12-31T19:42:03.118Z,21.20
2022-12-31T19:44:32.163Z,27.02
2022-12-31T19:47:01.188Z,33.08
2022-12-31T19:49:30.387Z,14.38
2022-12-31T19:51:59.068Z,38.95
2022-12-31T19:54:33.855Z,44.70
2022-12-31T19:57:03.230Z,27.63
2022-12-31T19:59:36.708Z,31.55
2022-12-31T20:02:05.775Z,21.27
2022-12-31T20:04:34.938Z,22.58
2022-12-31T20:07:04.479Z,18.33
2022-12-31T20:09:33.824Z,26.30
2022-12-31T20:12:02.609Z,19.00
2022-12-31T20:14:31.517Z,17.30
2022-12-31T20:17:00.502Z,15.04
2022-12-31T20:19:29.391Z,22.27
2022-12-31T20:21:58.464Z,15.93
2022-12-31T20:24:27.412Z,17.75
2022-12-31T20:26:56.375Z,17.55
2022-12-31T20:29:36.228Z,19.40
2022-12-31T20:32:08.374Z,21.10
2022-12-31T20:34:38.118Z,19.15
2022-12-31T20:37:07.292Z,21.23
2022-12-31T20:39:46.476Z,21.55
2022-12-31T20:42:18.420Z,20.25
2022-12-31T20:44:57.467Z,14.75
2022-12-31T20:47:36.976Z,15.37
2022-12-31T20:50:12.927Z,14.30
2022-12-31T20:52:43.768Z,19.23
2022-12-31T20:55:20.285Z,17.75
2022-12-31T20:57:54.115Z,18.98
2022-12-31T21:00:27.844Z,14.73
2022-12-31T21:03:06.708Z,22.42
2022-12-31T21:05:50.322Z,15.57
2022-12-31T21:08:34.530Z,24.90
2022-12-31T21:11:24.246Z,22.88
2022-12-31T21:13:54.671Z,26.88
2022-12-31T21:16:23.766Z,24.65
2022-12-31T21:18:53.152Z,21.63
2022-12-31T21:21:22.371Z,24.85
2022-12-31T21:23:51.240Z,14.30
2022-12-31T21:26:25.642Z,23.05
2022-12-31T21:28:54.817Z,12.15
2022-12-31T21:31:24.310Z,23.25
2022-12-31T21:33:53.198Z,14.20
2022-12-31T21:36:22.218Z,14.63
2022-12-31T21:38:51.534Z,18.13
2022-12-31T21:41:44.063Z,13.85
2022-12-31T21:44:23.892Z,23.08
2022-12-31T21:49:56.173Z,20.95
2022-12-31T21:52:27.997Z,12.85
2022-12-31T21:55:26.123Z,18.30
2022-12-31T22:01:03.054Z,16.33
2022-12-31T22:03:32.703Z,17.25
2022-12-31T22:06:01.541Z,13.32
2022-12-31T22:08:31.700Z,17.70
2022-12-31T22:11:00.452Z,12.93
2022-12-31T22:13:34.640Z,13.70
2022-12-31T22:16:05.833Z,15.70
2022-12-31T22:18:39.207Z,20.17
2022-12-31T22:21:18.408Z,18.40
2022-12-31T22:23:49.182Z,15.82
2022-12-31T22:26:18.977Z,17.45
2022-12-31T22:28:47.863Z,18.40
2022-12-31T22:31:21.683Z,16.13
2022-12-31T22:33:51.028Z,17.73
2022-12-31T22:36:21.327Z,17.70
2022-12-31T22:38:56.043Z,15.32
2022-12-31T22:41:30.504Z,18.42
2022-12-31T22:44:03.952Z,16.88
2022-12-31T22:46:43.027Z,13.60
2022-12-31T22:49:22.430Z,15.38
2022-12-31T22:51:57.630Z,15.95
2022-12-31T22:54:35.051Z,15.60
2022-12-31T22:57:16.141Z,14.52
2022-12-31T22:59:58.871Z,15.27
2022-12-31T23:02:41.696Z,14.77
2022-12-31T23:05:15.549Z,15.32
2022-12-31T23:07:45.704Z,14.68
2022-12-31T23:10:32.900Z,14.85
2022-12-31T23:13:21.786Z,18.80
2022-12-31T23:16:09.736Z,14.52
2022-12-31T23:19:05.584Z,16.13
2022-12-31T23:22:00.643Z,14.38
2022-12-31T23:24:30.403Z,17.63
2022-12-31T23:26:59.739Z,15.63
2022-12-31T23:29:32.908Z,17.13
2022-12-31T23:32:07.302Z,17.17
2022-12-31T23:34:36.455Z,15.27
2022-12-31T23:37:11.886Z,15.88
2022-12-31T23:39:41.189Z,12.97
2022-12-31T23:42:16.161Z,19.42
2022-12-31T23:44:50.331Z,13.15
2022-12-31T23:47:20.711Z,18.95
2022-12-31T23:49:49.948Z,16.67
2022-12-31T23:52:24.280Z,18.27
2022-12-31T23:54:53.406Z,13.40
2022-12-31T23:57:23.207Z,18.95
